Johann Essberger — CQKG — position and weather

sailwx.info

Track history (hours):
 
Tides and Currents Weather Stations Pressure Air Temp Water Temp Dewpoint Dewpoint Depression Visibility Wind Speed Wind Dir Waves Ship Positions

Johann Essberger

Last reported at 2014-Oct-25 20:34 UTC. Time now 2014-Oct-25 21:22 UTC.
Position N 51°21' E 003°50'.

Length 100 m; draft 5.7 m.

Type: Ship (hazmat cat B). MMSI: 255804460.

Date/timePositionNaut miles runAvg speedWind from/ knotsBaromVisibWave heightAir tempDewpointWater temp
2014-Oct-25 20:34N 51°21' E 003°50'1010.4
2014-Oct-25 19:33N 51°26' E 003°35'10 9.9
2014-Oct-25 18:33N 51°33' E 003°25'1211.8
2014-Oct-25 17:33N 51°43' E 003°15'24 2.0
2014-Oct-25 05:31N 52°04' E 003°34'6 6.3
2014-Oct-25 04:33N 52°04' E 003°44'7 6.7
2014-Oct-25 03:33N 52°03' E 003°55'1010.3
2014-Oct-25 02:33N 51°58' E 004°09'9 8.6
2014-Oct-25 01:33N 51°53' E 004°21'0 0.2
2014-Oct-25 00:31N 51°53' E 004°21'0 0.0
2014-Oct-24 23:31N 51°53' E 004°21'0 0.0
2014-Oct-24 22:31N 51°53' E 004°21'0 0.0
2014-Oct-24 21:31N 51°53' E 004°21'0 0.0
2014-Oct-24 20:31N 51°53' E 004°21'0 0.0
2014-Oct-24 19:31N 51°53' E 004°21'0 0.0
2014-Oct-24 18:31N 51°53' E 004°21'0 0.0
2014-Oct-24 17:31N 51°53' E 004°21'0 0.0
2014-Oct-24 16:31N 51°53' E 004°21'0 0.0
2014-Oct-24 15:31N 51°53' E 004°21'0 0.0
2014-Oct-24 14:28N 51°53' E 004°21'0 0.0
2014-Oct-24 13:31N 51°53' E 004°21'0 0.0
2014-Oct-24 12:31N 51°53' E 004°21'0 0.0
2014-Oct-24 11:31N 51°53' E 004°21'0 0.0
2014-Oct-24 10:31N 51°53' E 004°21'0 0.0
2014-Oct-24 09:34N 51°53' E 004°21'1 1.3
2014-Oct-24 08:34N 51°54' E 004°19'2 1.8
2014-Oct-24 07:34N 51°53' E 004°17'0 0.0
2014-Oct-24 06:31N 51°53' E 004°17'0 0.0
2014-Oct-24 05:34N 51°53' E 004°17'0 0.0
2014-Oct-24 04:22N 51°53' E 004°17'0 0.0
2014-Oct-24 03:31N 51°53' E 004°17'0 0.0
2014-Oct-24 02:28N 51°53' E 004°17'0 0.0
2014-Oct-24 01:34N 51°53' E 004°17'0 0.0
2014-Oct-24 00:28N 51°53' E 004°17'1 1.6
2014-Oct-23 23:33N 51°54' E 004°16'1111.0
2014-Oct-23 22:33N 51°60' E 004°01'1010.0
2014-Oct-23 21:33N 52°00' E 003°45'8 8.2
2014-Oct-23 20:32N 51°57' E 003°33'60 7.4
2014-Oct-23 12:21N 52°26' E 002°06'5 6.6
2014-Oct-23 11:33N 52°21' E 002°02'8 8.4
2014-Oct-23 10:33N 52°13' E 002°06'8 8.3
2014-Oct-23 09:34N 52°06' E 002°11'13 6.1
2014-Oct-23 07:23N 51°53' E 002°08'8 9.3
2014-Oct-23 06:33N 51°49' E 001°56'1110.7
2014-Oct-23 05:33N 51°51' E 001°39'9 9.2
2014-Oct-23 04:33N 51°56' E 001°27'8 8.0
2014-Oct-23 03:33N 51°57' E 001°14'0 0.0
2014-Oct-22 07:33N 51°57' E 001°14'4 4.3
2014-Oct-22 06:33N 51°55' E 001°21'9 8.6
2014-Oct-22 05:33N 51°59' E 001°34'7 6.7
2014-Oct-22 04:33N 52°04' E 001°40'10 9.9
2014-Oct-22 03:33N 52°13' E 001°47'9 9.2
2014-Oct-22 02:33N 52°22' E 001°50'8 8.3
2014-Oct-22 01:33N 52°30' E 001°53'8 7.8
2014-Oct-22 00:33N 52°38' E 001°55'8 8.2
2014-Oct-21 23:33N 52°46' E 001°53'1010.2
2014-Oct-21 22:33N 52°53' E 001°40'1110.8
2014-Oct-21 21:33N 53°01' E 001°29'1111.1
2014-Oct-21 20:33N 53°11' E 001°20'3911.5
2014-Oct-21 17:13N 53°43' E 000°45'812.4
2014-Oct-21 16:33N 53°50' E 000°37'1212.4
2014-Oct-21 15:33N 54°00' E 000°26'1212.4
2014-Oct-21 14:33N 54°12' E 000°18'1212.1
2014-Oct-21 13:33N 54°23' E 000°12'1211.7
2014-Oct-21 12:33N 54°35' E 000°06'1111.0
2014-Oct-21 11:33N 54°45' E 000°01'10 9.9
2014-Oct-21 10:33N 54°54' W 000°07'149 8.8
2014-Oct-20 17:33N 57°15' W 001°34'9 9.1
2014-Oct-20 16:33N 57°23' W 001°39'8 7.8
2014-Oct-20 15:33N 57°30' W 001°47'0 0.0
2014-Oct-20 06:14N 57°30' W 001°47'0 0.7
2014-Oct-20 05:33N 57°30' W 001°46'3 2.9
2014-Oct-20 04:33N 57°28' W 001°42'0 0.1
2014-Oct-20 03:33N 57°28' W 001°42'0 0.0
2014-Oct-20 02:33N 57°28' W 001°42'0 0.1
2014-Oct-20 01:33N 57°28' W 001°42'0 0.1
2014-Oct-20 00:33N 57°28' W 001°42'0 0.1
2014-Oct-19 23:33N 57°28' W 001°42'0 0.0
2014-Oct-19 22:33N 57°28' W 001°42'0 0.0
2014-Oct-19 21:33N 57°28' W 001°42'0 0.0
2014-Oct-19 20:33N 57°28' W 001°42'0 0.2
2014-Oct-19 19:30N 57°28' W 001°42'0 0.1
2014-Oct-19 18:33N 57°28' W 001°42'0 0.0
2014-Oct-19 17:33N 57°28' W 001°42'0 0.0
2014-Oct-19 16:33N 57°28' W 001°42'0 0.1
2014-Oct-19 15:33N 57°28' W 001°42'0 0.0
2014-Oct-19 14:32N 57°28' W 001°42'0 0.0
2014-Oct-19 13:28N 57°28' W 001°42'0 0.0
2014-Oct-19 12:25N 57°28' W 001°42'0 0.0
2014-Oct-19 11:28N 57°28' W 001°42'0 0.1
2014-Oct-19 10:28N 57°28' W 001°42'0 0.0
2014-Oct-19 09:28N 57°28' W 001°42'0 0.1
2014-Oct-19 08:28N 57°28' W 001°42'0 0.0
2014-Oct-19 07:31N 57°28' W 001°42'0 0.0
2014-Oct-19 06:31N 57°28' W 001°42'0 0.0
2014-Oct-19 05:31N 57°28' W 001°42'0 0.0
2014-Oct-19 04:31N 57°28' W 001°42'0 0.0
2014-Oct-19 03:31N 57°28' W 001°42'0 0.0
2014-Oct-19 02:31N 57°28' W 001°42'6 5.8
2014-Oct-19 01:33N 57°28' W 001°32'10 9.8
2014-Oct-19 00:33N 57°29' W 001°13'36810.5
2014-Oct-17 13:33N 57°49' E 010°14'1312.6
2014-Oct-17 12:33N 57°49' E 010°38'1211.7
2014-Oct-17 11:33N 57°43' E 010°57'1312.7
2014-Oct-17 10:33N 57°34' E 011°14'1212.5
2014-Oct-17 09:33N 57°25' E 011°28'1313.2
2014-Oct-17 08:33N 57°12' E 011°36'1313.4
2014-Oct-17 07:33N 56°59' E 011°45'1312.9
2014-Oct-17 06:33N 56°48' E 011°54'1212.1
2014-Oct-17 05:32N 56°35' E 011°58'1211.8
2014-Oct-17 04:33N 56°25' E 012°07'1313.2
2014-Oct-17 03:33N 56°15' E 012°22'1313.4
2014-Oct-17 02:33N 56°05' E 012°37'1212.2
2014-Oct-17 01:34N 55°53' E 012°44'1212.1
2014-Oct-17 00:33N 55°42' E 012°54'9 8.9
2014-Oct-16 23:33N 55°34' E 012°49'1110.8
2014-Oct-16 22:31N 55°23' E 012°41'9 9.3
2014-Oct-16 21:31N 55°16' E 012°52'5611.2
2014-Oct-16 16:32N 55°22' E 014°29'1211.6
2014-Oct-16 15:33N 55°30' E 014°45'1211.8
2014-Oct-16 14:32N 55°36' E 015°03'  
Track history (hours):
 
Tides and Currents Weather Stations Pressure Air Temp Water Temp Dewpoint Dewpoint Depression Visibility Wind Speed Wind Dir Waves Ship Positions

Johann Essberger

Last reported at 2014-Oct-25 20:34 UTC. Time now 2014-Oct-25 21:22 UTC.
Position N 51°21' E 003°50'.

Length 100 m; draft 5.7 m.

Type: Ship (hazmat cat B). MMSI: 255804460.

Date/timePositionNaut miles runAvg speedWind from/ knotsBaromVisibWave heightAir tempDewpointWater temp
2014-Oct-25 20:34N 51°21' E 003°50'1010.4
2014-Oct-25 19:33N 51°26' E 003°35'10 9.9
2014-Oct-25 18:33N 51°33' E 003°25'1211.8
2014-Oct-25 17:33N 51°43' E 003°15'24 2.0
2014-Oct-25 05:31N 52°04' E 003°34'6 6.3
2014-Oct-25 04:33N 52°04' E 003°44'7 6.7
2014-Oct-25 03:33N 52°03' E 003°55'1010.3
2014-Oct-25 02:33N 51°58' E 004°09'9 8.6
2014-Oct-25 01:33N 51°53' E 004°21'0 0.2
2014-Oct-25 00:31N 51°53' E 004°21'0 0.0
2014-Oct-24 23:31N 51°53' E 004°21'0 0.0
2014-Oct-24 22:31N 51°53' E 004°21'0 0.0
2014-Oct-24 21:31N 51°53' E 004°21'0 0.0
2014-Oct-24 20:31N 51°53' E 004°21'0 0.0
2014-Oct-24 19:31N 51°53' E 004°21'0 0.0
2014-Oct-24 18:31N 51°53' E 004°21'0 0.0
2014-Oct-24 17:31N 51°53' E 004°21'0 0.0
2014-Oct-24 16:31N 51°53' E 004°21'0 0.0
2014-Oct-24 15:31N 51°53' E 004°21'0 0.0
2014-Oct-24 14:28N 51°53' E 004°21'0 0.0
2014-Oct-24 13:31N 51°53' E 004°21'0 0.0
2014-Oct-24 12:31N 51°53' E 004°21'0 0.0
2014-Oct-24 11:31N 51°53' E 004°21'0 0.0
2014-Oct-24 10:31N 51°53' E 004°21'0 0.0
2014-Oct-24 09:34N 51°53' E 004°21'1 1.3
2014-Oct-24 08:34N 51°54' E 004°19'2 1.8
2014-Oct-24 07:34N 51°53' E 004°17'0 0.0
2014-Oct-24 06:31N 51°53' E 004°17'0 0.0
2014-Oct-24 05:34N 51°53' E 004°17'0 0.0
2014-Oct-24 04:22N 51°53' E 004°17'0 0.0
2014-Oct-24 03:31N 51°53' E 004°17'0 0.0
2014-Oct-24 02:28N 51°53' E 004°17'0 0.0
2014-Oct-24 01:34N 51°53' E 004°17'0 0.0
2014-Oct-24 00:28N 51°53' E 004°17'1 1.6
2014-Oct-23 23:33N 51°54' E 004°16'1111.0
2014-Oct-23 22:33N 51°60' E 004°01'1010.0
2014-Oct-23 21:33N 52°00' E 003°45'8 8.2
2014-Oct-23 20:32N 51°57' E 003°33'60 7.4
2014-Oct-23 12:21N 52°26' E 002°06'5 6.6
2014-Oct-23 11:33N 52°21' E 002°02'8 8.4
2014-Oct-23 10:33N 52°13' E 002°06'8 8.3
2014-Oct-23 09:34N 52°06' E 002°11'13 6.1
2014-Oct-23 07:23N 51°53' E 002°08'8 9.3
2014-Oct-23 06:33N 51°49' E 001°56'1110.7
2014-Oct-23 05:33N 51°51' E 001°39'9 9.2
2014-Oct-23 04:33N 51°56' E 001°27'8 8.0
2014-Oct-23 03:33N 51°57' E 001°14'0 0.0
2014-Oct-22 07:33N 51°57' E 001°14'4 4.3
2014-Oct-22 06:33N 51°55' E 001°21'9 8.6
2014-Oct-22 05:33N 51°59' E 001°34'7 6.7
2014-Oct-22 04:33N 52°04' E 001°40'10 9.9
2014-Oct-22 03:33N 52°13' E 001°47'9 9.2
2014-Oct-22 02:33N 52°22' E 001°50'8 8.3
2014-Oct-22 01:33N 52°30' E 001°53'8 7.8
2014-Oct-22 00:33N 52°38' E 001°55'8 8.2
2014-Oct-21 23:33N 52°46' E 001°53'1010.2
2014-Oct-21 22:33N 52°53' E 001°40'1110.8
2014-Oct-21 21:33N 53°01' E 001°29'1111.1
2014-Oct-21 20:33N 53°11' E 001°20'3911.5
2014-Oct-21 17:13N 53°43' E 000°45'812.4
2014-Oct-21 16:33N 53°50' E 000°37'1212.4
2014-Oct-21 15:33N 54°00' E 000°26'1212.4
2014-Oct-21 14:33N 54°12' E 000°18'1212.1
2014-Oct-21 13:33N 54°23' E 000°12'1211.7
2014-Oct-21 12:33N 54°35' E 000°06'1111.0
2014-Oct-21 11:33N 54°45' E 000°01'10 9.9
2014-Oct-21 10:33N 54°54' W 000°07'149 8.8
2014-Oct-20 17:33N 57°15' W 001°34'9 9.1
2014-Oct-20 16:33N 57°23' W 001°39'8 7.8
2014-Oct-20 15:33N 57°30' W 001°47'0 0.0
2014-Oct-20 06:14N 57°30' W 001°47'0 0.7
2014-Oct-20 05:33N 57°30' W 001°46'3 2.9
2014-Oct-20 04:33N 57°28' W 001°42'0 0.1
2014-Oct-20 03:33N 57°28' W 001°42'0 0.0
2014-Oct-20 02:33N 57°28' W 001°42'0 0.1
2014-Oct-20 01:33N 57°28' W 001°42'0 0.1
2014-Oct-20 00:33N 57°28' W 001°42'0 0.1
2014-Oct-19 23:33N 57°28' W 001°42'0 0.0
2014-Oct-19 22:33N 57°28' W 001°42'0 0.0
2014-Oct-19 21:33N 57°28' W 001°42'0 0.0
2014-Oct-19 20:33N 57°28' W 001°42'0 0.2
2014-Oct-19 19:30N 57°28' W 001°42'0 0.1
2014-Oct-19 18:33N 57°28' W 001°42'0 0.0
2014-Oct-19 17:33N 57°28' W 001°42'0 0.0
2014-Oct-19 16:33N 57°28' W 001°42'0 0.1
2014-Oct-19 15:33N 57°28' W 001°42'0 0.0
2014-Oct-19 14:32N 57°28' W 001°42'0 0.0
2014-Oct-19 13:28N 57°28' W 001°42'0 0.0
2014-Oct-19 12:25N 57°28' W 001°42'0 0.0
2014-Oct-19 11:28N 57°28' W 001°42'0 0.1
2014-Oct-19 10:28N 57°28' W 001°42'0 0.0
2014-Oct-19 09:28N 57°28' W 001°42'0 0.1
2014-Oct-19 08:28N 57°28' W 001°42'0 0.0
2014-Oct-19 07:31N 57°28' W 001°42'0 0.0
2014-Oct-19 06:31N 57°28' W 001°42'0 0.0
2014-Oct-19 05:31N 57°28' W 001°42'0 0.0
2014-Oct-19 04:31N 57°28' W 001°42'0 0.0
2014-Oct-19 03:31N 57°28' W 001°42'0 0.0
2014-Oct-19 02:31N 57°28' W 001°42'6 5.8
2014-Oct-19 01:33N 57°28' W 001°32'10 9.8
2014-Oct-19 00:33N 57°29' W 001°13'36810.5
2014-Oct-17 13:33N 57°49' E 010°14'1312.6
2014-Oct-17 12:33N 57°49' E 010°38'1211.7
2014-Oct-17 11:33N 57°43' E 010°57'1312.7
2014-Oct-17 10:33N 57°34' E 011°14'1212.5
2014-Oct-17 09:33N 57°25' E 011°28'1313.2
2014-Oct-17 08:33N 57°12' E 011°36'1313.4
2014-Oct-17 07:33N 56°59' E 011°45'1312.9
2014-Oct-17 06:33N 56°48' E 011°54'1212.1
2014-Oct-17 05:32N 56°35' E 011°58'1211.8
2014-Oct-17 04:33N 56°25' E 012°07'1313.2
2014-Oct-17 03:33N 56°15' E 012°22'1313.4
2014-Oct-17 02:33N 56°05' E 012°37'1212.2
2014-Oct-17 01:34N 55°53' E 012°44'1212.1
2014-Oct-17 00:33N 55°42' E 012°54'9 8.9
2014-Oct-16 23:33N 55°34' E 012°49'1110.8
2014-Oct-16 22:31N 55°23' E 012°41'9 9.3
2014-Oct-16 21:31N 55°16' E 012°52'5611.2
2014-Oct-16 16:32N 55°22' E 014°29'1211.6
2014-Oct-16 15:33N 55°30' E 014°45'1211.8
2014-Oct-16 14:32N 55°36' E 015°03'  

Dump ship's entire track history